createdAt,value
2017-09-12T00:01:28.179Z,94.45
2017-09-12T00:03:55.680Z,94.98
2017-09-12T00:06:23.191Z,95.35
2017-09-12T00:08:50.699Z,95.03
2017-09-12T00:11:18.228Z,94.95
2017-09-12T00:13:45.736Z,94.80
2017-09-12T00:16:13.256Z,94.00
2017-09-12T00:18:40.778Z,94.41
2017-09-12T00:21:08.299Z,94.95
2017-09-12T00:23:35.819Z,95.32
2017-09-12T00:26:03.333Z,95.38
2017-09-12T00:28:30.839Z,95.50
2017-09-12T00:30:58.363Z,95.17
2017-09-12T00:33:25.864Z,94.72
2017-09-12T00:35:53.398Z,93.87
2017-09-12T00:38:20.910Z,94.23
2017-09-12T00:40:48.402Z,93.18
2017-09-12T00:43:15.904Z,92.43
2017-09-12T00:45:43.432Z,93.27
2017-09-12T00:48:10.943Z,92.86
2017-09-12T00:50:38.456Z,92.53
2017-09-12T00:53:05.970Z,93.58
2017-09-12T00:55:33.472Z,92.74
2017-09-12T00:58:00.978Z,94.39
2017-09-12T01:00:28.506Z,94.97
2017-09-12T01:02:56.007Z,93.35
2017-09-12T01:05:23.503Z,93.92
2017-09-12T01:07:50.998Z,94.06
2017-09-12T01:10:18.505Z,93.65
2017-09-12T01:12:46.009Z,94.28
2017-09-12T01:15:13.512Z,95.21
2017-09-12T01:17:41.030Z,95.07
2017-09-12T01:20:08.527Z,94.90
2017-09-12T01:22:36.061Z,94.60
2017-09-12T01:25:03.592Z,94.93
2017-09-12T01:27:31.101Z,94.61
2017-09-12T01:29:58.620Z,94.69
2017-09-12T01:32:26.128Z,94.86
2017-09-12T01:34:53.626Z,95.10
2017-09-12T01:37:21.122Z,94.36
2017-09-12T01:39:48.614Z,95.13
2017-09-12T01:42:16.119Z,94.31
2017-09-12T01:44:43.624Z,94.44
2017-09-12T01:47:11.135Z,95.50
2017-09-12T01:49:38.640Z,94.88
2017-09-12T01:52:06.144Z,94.83
2017-09-12T01:54:33.656Z,94.77
2017-09-12T01:57:01.171Z,93.90
2017-09-12T01:59:28.671Z,93.84
2017-09-12T02:01:56.171Z,94.86
2017-09-12T02:04:23.671Z,95.15
2017-09-12T02:06:51.176Z,95.37
2017-09-12T02:09:18.670Z,95.50
2017-09-12T02:11:46.184Z,95.21
2017-09-12T02:14:13.686Z,95.03
2017-09-12T02:16:41.198Z,95.05
2017-09-12T02:19:08.713Z,94.60
2017-09-12T02:21:36.318Z,94.49
2017-09-12T02:24:03.816Z,93.80
2017-09-12T02:26:31.341Z,94.48
2017-09-12T02:28:58.841Z,95.13
2017-09-12T02:31:26.344Z,94.66
2017-09-12T02:33:53.872Z,94.47
2017-09-12T02:36:21.404Z,94.20
2017-09-12T02:38:48.924Z,94.69
2017-09-12T02:41:16.443Z,95.57
2017-09-12T02:43:43.952Z,93.55
2017-09-12T02:46:11.447Z,93.02
2017-09-12T02:48:38.969Z,93.57
2017-09-12T02:51:06.467Z,93.92
2017-09-12T02:53:33.999Z,92.99
2017-09-12T02:56:01.501Z,94.95
2017-09-12T02:58:29.001Z,95.75
2017-09-12T03:00:56.503Z,95.06
2017-09-12T03:03:24.006Z,94.55
2017-09-12T03:05:51.499Z,95.58
2017-09-12T03:08:19.028Z,95.55
2017-09-12T03:10:46.552Z,94.52
2017-09-12T03:13:14.064Z,93.99
2017-09-12T03:15:41.587Z,92.54
2017-09-12T03:18:09.096Z,93.91
2017-09-12T03:20:36.640Z,93.53
2017-09-12T03:23:04.159Z,94.00
2017-09-12T03:25:31.675Z,94.04
2017-09-12T03:27:59.262Z,94.15
2017-09-12T03:30:26.793Z,94.33
2017-09-12T03:32:54.565Z,94.64
2017-09-12T03:35:22.078Z,95.25
2017-09-12T03:37:49.600Z,95.38
2017-09-12T03:40:17.122Z,95.68
2017-09-12T03:42:44.634Z,96.17
2017-09-12T03:45:12.148Z,96.11
2017-09-12T03:47:39.646Z,95.97
2017-09-12T03:50:07.161Z,96.30
2017-09-12T03:52:34.677Z,96.45
2017-09-12T03:55:02.184Z,95.81
2017-09-12T03:57:29.689Z,94.84
2017-09-12T03:59:57.326Z,95.12
2017-09-12T04:02:24.854Z,95.74
2017-09-12T04:04:52.352Z,95.40
2017-09-12T04:07:19.854Z,94.34
2017-09-12T04:09:47.364Z,93.68
2017-09-12T04:12:14.865Z,94.31
2017-09-12T04:14:42.379Z,94.93
2017-09-12T04:17:09.890Z,95.01
2017-09-12T04:19:37.391Z,94.43
2017-09-12T04:22:04.903Z,92.87
2017-09-12T04:24:32.409Z,93.08
2017-09-12T04:26:59.926Z,94.39
2017-09-12T04:29:27.427Z,94.74
2017-09-12T04:31:54.942Z,94.67
2017-09-12T04:34:22.480Z,94.63
2017-09-12T04:36:49.972Z,95.25
2017-09-12T04:39:17.480Z,95.31
2017-09-12T04:41:44.984Z,95.79
2017-09-12T04:44:12.483Z,96.43
2017-09-12T04:46:39.996Z,95.37
2017-09-12T04:49:07.542Z,95.54
2017-09-12T04:51:35.076Z,95.63
2017-09-12T04:54:02.615Z,95.72
2017-09-12T04:56:30.118Z,96.36
2017-09-12T04:58:57.639Z,95.86
2017-09-12T05:01:25.151Z,95.88
2017-09-12T05:03:52.650Z,94.81
2017-09-12T05:06:20.167Z,94.55
2017-09-12T05:08:47.671Z,93.01
2017-09-12T05:11:15.175Z,92.50
2017-09-12T05:13:42.695Z,92.47
2017-09-12T05:16:10.209Z,92.95
2017-09-12T05:18:37.699Z,93.82
2017-09-12T05:21:05.189Z,94.59
2017-09-12T05:23:32.719Z,93.66
2017-09-12T05:26:00.228Z,94.18
2017-09-12T05:28:27.732Z,93.35
2017-09-12T05:30:55.234Z,94.68
2017-09-12T05:33:22.748Z,94.70
2017-09-12T05:35:50.258Z,95.37
2017-09-12T05:38:17.783Z,94.86
2017-09-12T05:40:45.297Z,95.10
2017-09-12T05:43:12.821Z,94.60
2017-09-12T05:45:40.327Z,95.21
2017-09-12T05:48:07.867Z,94.95
2017-09-12T05:50:35.374Z,95.04
2017-09-12T05:53:02.883Z,95.65
2017-09-12T05:55:30.392Z,95.64
2017-09-12T05:57:57.945Z,93.53
2017-09-12T06:00:25.457Z,92.57
2017-09-12T06:02:52.973Z,92.00
2017-09-12T06:05:20.488Z,91.89
2017-09-12T06:07:47.996Z,90.54
2017-09-12T06:10:15.506Z,89.47
2017-09-12T06:12:43.023Z,88.29
2017-09-12T06:15:10.530Z,87.83
2017-09-12T06:17:38.034Z,89.08
2017-09-12T06:20:05.549Z,89.46
2017-09-12T06:22:33.074Z,90.45
2017-09-12T06:25:00.629Z,88.43
2017-09-12T06:27:28.145Z,89.63
2017-09-12T06:29:55.668Z,88.70
2017-09-12T06:32:23.171Z,88.65
2017-09-12T06:34:50.682Z,86.65
2017-09-12T06:37:18.215Z,86.38
2017-09-12T06:39:45.713Z,86.35
2017-09-12T06:42:13.248Z,86.62
2017-09-12T06:44:40.757Z,83.87
2017-09-12T06:47:08.275Z,85.76
2017-09-12T06:49:35.784Z,84.72
2017-09-12T06:52:03.319Z,82.59
2017-09-12T06:54:30.852Z,84.22
2017-09-12T06:56:58.359Z,85.41
2017-09-12T06:59:25.871Z,83.96
2017-09-12T07:01:53.396Z,83.78
2017-09-12T07:04:20.915Z,83.86
2017-09-12T07:06:48.436Z,82.81
2017-09-12T07:09:15.966Z,79.48
2017-09-12T07:11:43.501Z,77.58
2017-09-12T07:14:11.045Z,78.32
2017-09-12T07:16:38.574Z,78.28
2017-09-12T07:19:06.083Z,77.38
2017-09-12T07:21:33.598Z,80.37
2017-09-12T07:24:01.099Z,79.07
2017-09-12T07:26:28.602Z,79.11
2017-09-12T07:28:56.103Z,76.61
2017-09-12T07:31:23.618Z,79.35
2017-09-12T07:33:51.117Z,79.71
2017-09-12T07:36:18.656Z,79.89
2017-09-12T07:38:46.191Z,77.05
2017-09-12T07:41:13.708Z,77.94
2017-09-12T07:43:41.218Z,78.15
2017-09-12T07:46:08.731Z,75.67
2017-09-12T07:48:36.252Z,75.57
2017-09-12T07:51:03.758Z,76.01
2017-09-12T07:53:31.265Z,75.12
2017-09-12T07:55:58.779Z,76.60
2017-09-12T07:58:26.297Z,76.32
2017-09-12T08:00:53.836Z,75.94
2017-09-12T08:03:21.340Z,74.83
2017-09-12T08:05:48.860Z,76.16
2017-09-12T08:08:16.373Z,75.66
2017-09-12T08:10:43.907Z,77.60
2017-09-12T08:13:11.441Z,77.08
2017-09-12T08:15:38.948Z,74.82
2017-09-12T08:18:06.455Z,75.46
2017-09-12T08:20:33.967Z,76.30
2017-09-12T08:23:01.497Z,78.98
2017-09-12T08:25:29.026Z,81.04
2017-09-12T08:27:56.536Z,82.02
2017-09-12T08:30:24.054Z,83.69
2017-09-12T08:32:51.567Z,83.88
2017-09-12T08:35:19.078Z,82.88
2017-09-12T08:37:46.590Z,83.92
2017-09-12T08:40:14.089Z,83.86
2017-09-12T08:42:41.591Z,83.66
2017-09-12T08:45:09.119Z,80.91
2017-09-12T08:47:36.632Z,77.03
2017-09-12T08:50:04.160Z,77.29
2017-09-12T08:52:31.668Z,75.13
2017-09-12T08:54:59.167Z,73.43
2017-09-12T08:57:26.684Z,67.21
2017-09-12T08:59:54.211Z,70.84
2017-09-12T09:02:21.739Z,69.77
2017-09-12T09:04:49.267Z,68.28
2017-09-12T09:07:16.770Z,67.42
2017-09-12T09:09:44.298Z,64.85
2017-09-12T09:12:11.837Z,62.01
2017-09-12T09:14:39.345Z,50.56
2017-09-12T09:17:06.887Z,55.63
2017-09-12T09:19:34.407Z,52.80
2017-09-12T09:22:01.912Z,50.28
2017-09-12T09:24:29.414Z,53.40
2017-09-12T09:26:56.966Z,47.46
2017-09-12T09:29:24.484Z,40.09
2017-09-12T09:31:52.021Z,45.22
2017-09-12T09:34:19.559Z,51.49
2017-09-12T09:36:47.059Z,54.79
2017-09-12T09:39:14.704Z,53.90
2017-09-12T09:41:42.208Z,51.20
2017-09-12T09:44:09.723Z,49.36
2017-09-12T09:46:37.244Z,55.06
2017-09-12T09:49:04.751Z,52.30
2017-09-12T09:51:32.284Z,55.90
2017-09-12T09:53:59.794Z,59.01
2017-09-12T09:56:27.306Z,53.62
2017-09-12T09:58:54.808Z,43.83
2017-09-12T10:01:22.326Z,40.79
2017-09-12T10:03:49.868Z,41.03
2017-09-12T10:06:17.367Z,43.10
2017-09-12T10:08:44.891Z,38.37
2017-09-12T10:11:12.414Z,35.00
2017-09-12T10:13:39.915Z,33.25
2017-09-12T10:16:07.428Z,37.73
2017-09-12T10:18:34.947Z,40.82
2017-09-12T10:21:02.481Z,39.23
2017-09-12T10:23:29.982Z,41.46
2017-09-12T10:25:57.486Z,47.66
2017-09-12T10:28:25.036Z,47.37
2017-09-12T10:30:52.561Z,45.90
2017-09-12T10:33:20.083Z,44.84
2017-09-12T10:35:47.590Z,48.86
2017-09-12T10:38:15.186Z,42.72
2017-09-12T10:40:42.700Z,36.82
2017-09-12T10:43:10.247Z,35.66
2017-09-12T10:45:37.772Z,41.78
2017-09-12T10:48:05.280Z,41.35
2017-09-12T10:50:32.796Z,40.26
2017-09-12T10:53:00.608Z,44.54
2017-09-12T10:55:28.123Z,45.65
2017-09-12T10:57:55.643Z,43.06
2017-09-12T11:00:23.152Z,35.49
2017-09-12T11:02:50.716Z,34.50
2017-09-12T11:05:18.228Z,36.00
2017-09-12T11:07:45.763Z,34.10
2017-09-12T11:10:13.276Z,28.46
2017-09-12T11:12:40.808Z,30.69
2017-09-12T11:15:08.386Z,29.96
2017-09-12T11:17:35.918Z,34.46
2017-09-12T11:20:03.432Z,32.28
2017-09-12T11:22:30.956Z,31.93
2017-09-12T11:24:58.504Z,27.86
2017-09-12T11:27:26.033Z,28.40
2017-09-12T11:29:53.559Z,33.76
2017-09-12T11:32:21.068Z,39.86
2017-09-12T11:34:48.614Z,37.88
2017-09-12T11:37:16.145Z,37.30
2017-09-12T11:39:43.710Z,37.10
2017-09-12T11:42:12.128Z,36.58
2017-09-12T11:44:39.648Z,27.02
2017-09-12T11:47:07.153Z,27.18
2017-09-12T11:49:34.671Z,27.37
2017-09-12T11:52:02.184Z,26.82
2017-09-12T11:54:29.689Z,27.90
2017-09-12T11:56:57.194Z,24.65
2017-09-12T11:59:24.710Z,24.56
2017-09-12T12:01:52.244Z,27.40
2017-09-12T12:04:19.783Z,30.66
2017-09-12T12:06:47.302Z,30.12
2017-09-12T12:09:14.799Z,31.84
2017-09-12T12:11:42.323Z,33.01
2017-09-12T12:14:09.831Z,34.04
2017-09-12T12:16:37.441Z,37.35
2017-09-12T12:19:04.968Z,45.70
2017-09-12T12:21:32.495Z,58.58
2017-09-12T12:24:00.000Z,65.98
2017-09-12T12:26:27.524Z,70.55
2017-09-12T12:28:55.037Z,74.20
2017-09-12T12:31:22.593Z,76.63
2017-09-12T12:33:51.100Z,81.40
2017-09-12T12:36:18.621Z,81.60
2017-09-12T12:38:46.174Z,75.19
2017-09-12T12:41:13.702Z,78.14
2017-09-12T12:43:41.266Z,75.01
2017-09-12T12:46:08.767Z,66.28
2017-09-12T12:48:36.324Z,54.05
2017-09-12T12:51:03.901Z,49.33
2017-09-12T12:53:31.426Z,42.92
2017-09-12T12:55:58.928Z,32.97
2017-09-12T12:58:26.445Z,28.67
2017-09-12T13:00:53.959Z,31.84
2017-09-12T13:03:21.460Z,38.33
2017-09-12T13:05:48.968Z,50.08
2017-09-12T13:08:16.481Z,55.54
2017-09-12T13:10:43.987Z,59.95
2017-09-12T13:13:11.507Z,65.83
2017-09-12T13:15:39.014Z,74.78
2017-09-12T13:18:06.523Z,79.63
2017-09-12T13:20:34.027Z,81.46
2017-09-12T13:23:01.539Z,86.29
2017-09-12T13:25:29.047Z,82.52
2017-09-12T13:27:56.563Z,80.88
2017-09-12T13:30:24.065Z,84.12
2017-09-12T13:32:51.592Z,84.34
2017-09-12T13:35:19.103Z,80.41
2017-09-12T13:37:46.603Z,82.04
2017-09-12T13:40:14.163Z,74.29
2017-09-12T13:42:41.663Z,56.24
2017-09-12T13:45:09.187Z,51.43
2017-09-12T13:47:36.717Z,47.66
2017-09-12T13:50:04.244Z,46.26
2017-09-12T13:52:31.755Z,41.08
2017-09-12T13:54:59.257Z,45.71
2017-09-12T13:57:26.773Z,48.91
2017-09-12T13:59:54.296Z,51.67
2017-09-12T14:02:21.827Z,55.58
2017-09-12T14:04:49.356Z,62.66
2017-09-12T14:07:16.877Z,67.40
2017-09-12T14:09:44.381Z,68.28
2017-09-12T14:12:11.895Z,65.12
2017-09-12T14:14:39.395Z,56.67
2017-09-12T14:17:06.935Z,58.30
2017-09-12T14:19:34.450Z,55.46
2017-09-12T14:22:01.986Z,56.53
2017-09-12T14:24:29.507Z,60.10
2017-09-12T14:26:57.016Z,61.61
2017-09-12T14:29:24.531Z,71.45
2017-09-12T14:31:52.048Z,69.54
2017-09-12T14:34:19.583Z,78.40
2017-09-12T14:36:47.136Z,75.26
2017-09-12T14:39:14.643Z,77.47
2017-09-12T14:41:42.151Z,73.76
2017-09-12T14:44:09.663Z,75.84
2017-09-12T14:46:37.182Z,79.66
2017-09-12T14:49:04.697Z,81.66
2017-09-12T14:51:32.244Z,85.88
2017-09-12T14:53:59.750Z,89.65
2017-09-12T14:56:27.283Z,89.58
2017-09-12T14:58:54.821Z,80.92
2017-09-12T15:01:22.359Z,76.99
2017-09-12T15:03:49.898Z,73.46
2017-09-12T15:06:17.425Z,70.08
2017-09-12T15:08:44.952Z,73.73
2017-09-12T15:11:12.583Z,73.17
2017-09-12T15:13:40.128Z,74.06
2017-09-12T15:16:07.656Z,72.30
2017-09-12T15:18:35.175Z,73.58
2017-09-12T15:21:02.687Z,77.02
2017-09-12T15:23:30.186Z,75.07
2017-09-12T15:25:57.774Z,73.91
2017-09-12T15:28:25.311Z,73.88
2017-09-12T15:30:52.841Z,73.98
2017-09-12T15:33:20.395Z,72.30
2017-09-12T15:35:47.920Z,72.43
2017-09-12T15:38:15.437Z,73.09
2017-09-12T15:40:42.974Z,73.76
2017-09-12T15:43:10.497Z,71.89
2017-09-12T15:45:38.018Z,71.54
2017-09-12T15:48:05.538Z,70.45
2017-09-12T15:50:33.094Z,72.78
2017-09-12T15:53:00.600Z,72.09
2017-09-12T15:55:28.125Z,68.81
2017-09-12T15:57:55.628Z,67.14
2017-09-12T16:00:23.144Z,68.03
2017-09-12T16:02:50.707Z,71.24
2017-09-12T16:05:18.238Z,70.41
2017-09-12T16:07:45.759Z,70.29
2017-09-12T16:10:13.271Z,71.82
2017-09-12T16:12:40.770Z,71.23
2017-09-12T16:15:08.279Z,70.25
2017-09-12T16:17:35.832Z,71.17
2017-09-12T16:20:03.347Z,74.83
2017-09-12T16:22:30.891Z,71.51
2017-09-12T16:24:58.444Z,74.02
2017-09-12T16:27:26.000Z,74.89
2017-09-12T16:29:53.523Z,73.85
2017-09-12T16:32:21.032Z,73.40
2017-09-12T16:34:48.547Z,74.51
2017-09-12T16:37:16.092Z,72.42
2017-09-12T16:39:43.616Z,72.73
2017-09-12T16:42:11.157Z,74.61
2017-09-12T16:44:38.668Z,74.33
2017-09-12T16:47:06.306Z,72.67
2017-09-12T16:49:33.839Z,75.06
2017-09-12T16:52:01.371Z,73.73
2017-09-12T16:54:28.882Z,74.73
2017-09-12T16:56:56.404Z,74.17
2017-09-12T16:59:23.956Z,76.41
2017-09-12T17:01:51.508Z,74.98
2017-09-12T17:04:19.421Z,76.08
2017-09-12T17:06:48.576Z,75.85
2017-09-12T17:09:16.108Z,77.61
2017-09-12T17:11:43.631Z,76.02
2017-09-12T17:14:11.664Z,76.76
2017-09-12T17:16:39.236Z,77.60
2017-09-12T17:19:06.768Z,76.33
2017-09-12T17:21:34.272Z,77.39
2017-09-12T17:24:01.853Z,77.27
2017-09-12T17:26:29.374Z,78.30
2017-09-12T17:28:56.876Z,78.19
2017-09-12T17:31:24.402Z,78.37
2017-09-12T17:33:51.920Z,78.65
2017-09-12T17:36:19.445Z,79.46
2017-09-12T17:38:46.975Z,79.85
2017-09-12T17:41:14.496Z,79.96
2017-09-12T17:43:42.012Z,82.05
2017-09-12T17:46:09.612Z,82.97
2017-09-12T17:48:37.835Z,86.12
2017-09-12T17:51:05.413Z,87.89
2017-09-12T17:53:32.940Z,88.39
2017-09-12T17:56:00.488Z,88.98
2017-09-12T17:58:28.037Z,88.80
2017-09-12T18:00:55.556Z,90.44
2017-09-12T18:03:23.111Z,89.17
2017-09-12T18:05:50.628Z,87.37
2017-09-12T18:08:18.173Z,90.14
2017-09-12T18:10:45.716Z,90.49
2017-09-12T18:13:13.243Z,91.16
2017-09-12T18:15:40.804Z,91.36
2017-09-12T18:18:08.355Z,92.07
2017-09-12T18:20:35.872Z,91.68
2017-09-12T18:23:03.410Z,91.38
2017-09-12T18:25:30.965Z,91.32
2017-09-12T18:27:58.506Z,90.21
2017-09-12T18:30:26.076Z,90.41
2017-09-12T18:32:53.632Z,90.32
2017-09-12T18:35:21.193Z,90.07
2017-09-12T18:37:48.715Z,87.88
2017-09-12T18:40:16.239Z,88.13
2017-09-12T18:42:43.800Z,87.23
2017-09-12T18:45:11.335Z,88.54
2017-09-12T18:47:38.957Z,90.68
2017-09-12T18:50:06.488Z,90.57
2017-09-12T18:52:34.037Z,90.53
2017-09-12T18:55:01.566Z,89.58
2017-09-12T18:57:29.102Z,87.28
2017-09-12T18:59:56.646Z,87.29
2017-09-12T19:02:24.181Z,88.41
2017-09-12T19:04:51.703Z,89.19
2017-09-12T19:07:19.308Z,90.07
2017-09-12T19:09:46.819Z,91.29
2017-09-12T19:12:14.359Z,92.47
2017-09-12T19:14:41.880Z,92.49
2017-09-12T19:17:09.489Z,94.00
2017-09-12T19:19:37.033Z,92.99
2017-09-12T19:22:04.572Z,93.28
2017-09-12T19:24:32.090Z,92.71
2017-09-12T19:26:59.647Z,92.32
2017-09-12T19:29:27.232Z,93.24
2017-09-12T19:31:54.766Z,93.22
2017-09-12T19:34:22.317Z,93.29
2017-09-12T19:36:49.854Z,91.94
2017-09-12T19:39:17.359Z,91.56
2017-09-12T19:41:44.861Z,90.41
2017-09-12T19:44:12.385Z,87.38
2017-09-12T19:46:39.928Z,84.87
2017-09-12T19:49:07.463Z,84.14
2017-09-12T19:51:34.971Z,81.46
2017-09-12T19:54:02.478Z,80.75
2017-09-12T19:56:29.997Z,80.41
2017-09-12T19:58:57.503Z,80.42
2017-09-12T20:01:25.026Z,80.05
2017-09-12T20:03:52.574Z,78.67
2017-09-12T20:06:20.084Z,78.46
2017-09-12T20:08:47.619Z,78.60
2017-09-12T20:11:15.159Z,78.53
2017-09-12T20:13:42.700Z,77.54
2017-09-12T20:16:10.232Z,77.86
2017-09-12T20:18:37.784Z,78.21
2017-09-12T20:21:05.295Z,80.05
2017-09-12T20:23:32.808Z,79.13
2017-09-12T20:26:00.334Z,80.54
2017-09-12T20:28:27.875Z,80.51
2017-09-12T20:30:55.379Z,80.67
2017-09-12T20:33:22.893Z,81.80
2017-09-12T20:35:50.397Z,80.94
2017-09-12T20:38:17.946Z,80.07
2017-09-12T20:40:45.455Z,80.73
2017-09-12T20:43:12.999Z,79.44
2017-09-12T20:45:40.596Z,80.49
2017-09-12T20:48:08.095Z,80.87
2017-09-12T20:50:35.612Z,81.95
2017-09-12T20:53:03.117Z,82.01
2017-09-12T20:55:30.645Z,82.77
2017-09-12T20:57:58.188Z,82.23
2017-09-12T21:00:25.696Z,82.27
2017-09-12T21:02:53.222Z,81.64
2017-09-12T21:05:20.766Z,81.68
2017-09-12T21:07:48.306Z,81.08
2017-09-12T21:10:15.865Z,80.36
2017-09-12T21:12:43.375Z,79.68
2017-09-12T21:15:10.880Z,79.99
2017-09-12T21:17:38.409Z,79.83
2017-09-12T21:20:05.929Z,80.83
2017-09-12T21:22:33.456Z,79.87
2017-09-12T21:25:00.969Z,82.43
2017-09-12T21:27:28.507Z,81.64
2017-09-12T21:29:56.024Z,81.15
2017-09-12T21:32:23.528Z,82.10
2017-09-12T21:34:51.146Z,83.05
2017-09-12T21:37:18.656Z,82.54
2017-09-12T21:39:46.176Z,83.72
2017-09-12T21:42:13.671Z,84.33
2017-09-12T21:44:41.211Z,84.43
2017-09-12T21:47:08.777Z,84.38
2017-09-12T21:49:36.281Z,84.91
2017-09-12T21:52:03.807Z,86.01
2017-09-12T21:54:31.336Z,85.55
2017-09-12T21:56:58.842Z,86.04
2017-09-12T21:59:26.382Z,84.14
2017-09-12T22:01:53.890Z,83.77
2017-09-12T22:04:21.460Z,84.94
2017-09-12T22:06:48.967Z,84.35
2017-09-12T22:09:16.492Z,83.45
2017-09-12T22:11:44.014Z,84.43
2017-09-12T22:14:11.520Z,82.72
2017-09-12T22:16:39.101Z,82.01
2017-09-12T22:19:06.613Z,84.90
2017-09-12T22:21:34.131Z,83.51
2017-09-12T22:24:01.652Z,83.01
2017-09-12T22:26:29.156Z,85.70
2017-09-12T22:28:58.706Z,86.19
2017-09-12T22:31:26.299Z,84.27
2017-09-12T22:33:53.817Z,86.58
2017-09-12T22:36:21.347Z,85.56
2017-09-12T22:38:48.873Z,87.53
2017-09-12T22:41:16.400Z,88.58
2017-09-12T22:43:43.952Z,90.01
2017-09-12T22:46:11.464Z,89.99
2017-09-12T22:48:39.018Z,91.07
2017-09-12T22:51:06.531Z,89.65
2017-09-12T22:53:34.152Z,90.57
2017-09-12T22:56:01.815Z,87.44
2017-09-12T22:58:29.339Z,89.93
2017-09-12T23:00:56.844Z,89.90
2017-09-12T23:03:24.360Z,91.10
2017-09-12T23:05:51.883Z,90.98
2017-09-12T23:08:19.391Z,92.25
2017-09-12T23:10:46.887Z,91.95
2017-09-12T23:13:18.585Z,92.78
2017-09-12T23:15:46.103Z,92.18
2017-09-12T23:18:13.614Z,92.04
2017-09-12T23:20:41.128Z,91.55
2017-09-12T23:23:08.630Z,90.96
2017-09-12T23:25:36.132Z,89.59
2017-09-12T23:28:03.661Z,91.18
2017-09-12T23:30:31.155Z,90.76
2017-09-12T23:32:58.667Z,91.21
2017-09-12T23:35:26.169Z,91.83
2017-09-12T23:37:53.663Z,92.27
2017-09-12T23:40:21.203Z,93.51
2017-09-12T23:42:48.744Z,93.50
2017-09-12T23:45:16.268Z,93.93
2017-09-12T23:47:43.783Z,93.55
2017-09-12T23:50:11.291Z,93.27
2017-09-12T23:52:38.800Z,93.00
2017-09-12T23:55:06.312Z,93.67
2017-09-12T23:57:33.830Z,93.78
